Time;durP1;ratioP1;P1;durP2;ratioP2;P2;SDS_P1;SDS_P2;PMS_P1;PMS_P2;Temp;Humidity;BMP_temperature;BMP_pressure;BME280_temperature;BME280_humidity;BME280_pressure;Samples;Min_cycle;Max_cycle;Signal;HPM_P1;HPM_P2
2024/01/11 00:00:35;;;;;;;97.47;32.47;;;-4.20;99.90;;;;;;5028543;28;20041;-77
2024/01/11 00:03:00;;;;;;;102.65;31.73;;;-4.20;99.90;;;;;;5028297;28;20033;-73
2024/01/11 00:05:26;;;;;;;106.32;33.00;;;-4.10;99.90;;;;;;5028590;28;20029;-74
2024/01/11 00:07:52;;;;;;;105.55;29.65;;;-4.10;99.90;;;;;;5028143;28;20030;-73
2024/01/11 00:10:18;;;;;;;103.88;32.53;;;-4.10;99.90;;;;;;5029920;28;20041;-73
2024/01/11 00:12:44;;;;;;;110.22;31.80;;;-4.10;99.90;;;;;;5038897;28;20053;-73
2024/01/11 00:15:10;;;;;;;106.93;32.10;;;-4.10;99.90;;;;;;5028807;28;20110;-74
2024/01/11 00:17:36;;;;;;;97.10;31.60;;;-4.20;99.90;;;;;;5030293;28;20132;-76
2024/01/11 00:20:02;;;;;;;98.18;31.45;;;-4.30;99.90;;;;;;5039493;28;20036;-72
2024/01/11 00:22:28;;;;;;;89.80;30.67;;;-4.40;99.90;;;;;;5028721;28;20188;-73
2024/01/11 00:24:53;;;;;;;97.65;30.63;;;-4.40;99.90;;;;;;5028261;28;20533;-73
2024/01/11 00:27:19;;;;;;;89.13;28.45;;;-4.50;99.90;;;;;;5028610;28;20040;-73
2024/01/11 00:29:45;;;;;;;92.35;30.85;;;-4.40;99.90;;;;;;5027814;28;20390;-73
2024/01/11 00:32:10;;;;;;;101.40;30.85;;;-4.40;99.90;;;;;;5027947;28;20064;-73
2024/01/11 00:35:26;;;;;;;96.55;30.70;;;-4.50;99.90;;;;;;5027174;28;20160;-77
2024/01/11 00:37:52;;;;;;;100.90;29.20;;;-4.50;99.90;;;;;;5025709;28;20063;-73
2024/01/11 00:40:17;;;;;;;97.32;29.52;;;-4.50;99.90;;;;;;5028430;28;20025;-74
2024/01/11 00:42:43;;;;;;;93.68;29.80;;;-4.60;99.90;;;;;;5044212;28;20488;-74
2024/01/11 00:45:09;;;;;;;97.38;30.00;;;-4.60;99.90;;;;;;5039494;28;20100;-73
2024/01/11 00:47:34;;;;;;;99.40;29.95;;;-4.70;99.90;;;;;;5035047;28;20053;-74
2024/01/11 00:50:00;;;;;;;100.32;30.98;;;-4.70;99.90;;;;;;5034691;28;20037;-74
2024/01/11 00:52:25;;;;;;;100.57;31.08;;;-4.90;99.90;;;;;;5033250;28;20048;-73
2024/01/11 00:54:51;;;;;;;99.90;31.42;;;-4.90;99.90;;;;;;5040219;28;20028;-73
2024/01/11 00:57:17;;;;;;;102.68;29.88;;;-4.90;99.90;;;;;;5041060;28;20038;-72
2024/01/11 00:59:42;;;;;;;97.28;29.67;;;-4.90;99.90;;;;;;5036773;28;20102;-73
2024/01/11 01:02:08;;;;;;;87.15;29.42;;;-4.90;99.90;;;;;;5039880;28;20033;-74
2024/01/11 01:04:38;;;;;;;100.00;30.75;;;-4.90;99.90;;;;;;5030431;28;20030;-73
2024/01/11 01:07:04;;;;;;;94.45;30.20;;;-4.90;99.90;;;;;;5033344;28;20028;-73
2024/01/11 01:09:30;;;;;;;90.43;29.05;;;-4.90;99.90;;;;;;5043474;28;20038;-74
2024/01/11 01:11:56;;;;;;;102.70;30.73;;;-4.90;99.90;;;;;;5030399;28;20042;-73
2024/01/11 01:14:21;;;;;;;94.25;29.25;;;-4.90;99.90;;;;;;5049885;28;20025;-73
2024/01/11 01:16:47;;;;;;;88.10;28.15;;;-5.00;99.90;;;;;;5033604;28;20553;-73
2024/01/11 01:19:12;;;;;;;91.80;29.52;;;-5.00;99.90;;;;;;5031949;28;20040;-74
2024/01/11 01:21:38;;;;;;;107.00;30.67;;;-5.10;99.90;;;;;;5031035;28;20033;-76
2024/01/11 01:24:04;;;;;;;99.25;29.65;;;-5.10;99.90;;;;;;5030988;28;20029;-73
2024/01/11 01:26:29;;;;;;;96.50;30.75;;;-5.10;99.90;;;;;;5035200;28;20103;-73
2024/01/11 01:28:55;;;;;;;97.85;28.95;;;-5.10;99.90;;;;;;5050782;28;20032;-72
2024/01/11 01:31:21;;;;;;;85.75;29.45;;;-5.10;99.90;;;;;;5050047;28;20580;-74
2024/01/11 01:33:47;;;;;;;102.53;31.52;;;-5.10;99.90;;;;;;5030937;28;20134;-73
2024/01/11 01:36:13;;;;;;;96.60;29.95;;;-5.00;99.90;;;;;;5031514;28;20080;-73
2024/01/11 01:38:38;;;;;;;104.57;30.10;;;-4.90;99.90;;;;;;5037389;28;20040;-77
2024/01/11 01:41:04;;;;;;;95.70;30.75;;;-4.90;99.90;;;;;;5031471;28;20037;-73
2024/01/11 01:43:30;;;;;;;98.30;32.17;;;-4.90;99.90;;;;;;5032987;28;20033;-74
2024/01/11 01:45:56;;;;;;;92.45;30.80;;;-4.90;99.90;;;;;;5030782;28;20037;-72
2024/01/11 01:48:22;;;;;;;105.03;31.95;;;-4.90;99.90;;;;;;5044680;28;20049;-73
2024/01/11 01:50:51;;;;;;;112.43;32.05;;;-4.90;99.90;;;;;;5035046;28;20037;-75
2024/01/11 01:53:28;;;;;;;101.82;31.83;;;-4.90;99.90;;;;;;5044693;28;20051;-73
2024/01/11 01:55:54;;;;;;;102.03;30.23;;;-4.80;99.90;;;;;;5043395;28;20033;-73
2024/01/11 01:58:21;;;;;;;104.53;31.85;;;-4.80;99.90;;;;;;5038720;28;20425;-73
2024/01/11 02:00:50;;;;;;;100.97;31.15;;;-4.80;99.90;;;;;;5035928;28;20037;-72
2024/01/11 02:03:16;;;;;;;93.43;31.42;;;-4.90;99.90;;;;;;5030747;28;20040;-72
2024/01/11 02:05:42;;;;;;;95.88;31.77;;;-5.00;99.90;;;;;;5038506;28;20036;-77
2024/01/11 02:08:12;;;;;;;101.57;30.33;;;-5.00;99.90;;;;;;5042847;28;20112;-73
2024/01/11 02:10:37;;;;;;;105.63;32.53;;;-5.10;99.90;;;;;;5034997;28;20489;-74
2024/01/11 02:13:04;;;;;;;102.00;30.40;;;-5.10;99.90;;;;;;5029190;28;20036;-74
2024/01/11 02:15:30;;;;;;;94.93;31.05;;;-5.00;99.90;;;;;;5031164;28;20134;-74
2024/01/11 02:17:56;;;;;;;98.00;30.00;;;-5.10;99.90;;;;;;5046306;28;20558;-73
2024/01/11 02:20:21;;;;;;;93.10;29.50;;;-5.10;99.90;;;;;;5048272;28;20041;-73
2024/01/11 02:22:53;;;;;;;101.70;30.65;;;-5.10;99.90;;;;;;5029693;28;20083;-73
2024/01/11 02:25:18;;;;;;;101.72;30.83;;;-5.20;99.90;;;;;;5029455;28;20036;-73
2024/01/11 02:27:48;;;;;;;96.95;31.95;;;-5.20;99.90;;;;;;5032476;28;20038;-76
2024/01/11 02:30:15;;;;;;;93.07;30.83;;;-5.30;99.90;;;;;;5045053;28;20091;-72
2024/01/11 02:32:42;;;;;;;108.68;32.05;;;-5.30;99.90;;;;;;5040714;28;20441;-73
2024/01/11 02:35:08;;;;;;;98.93;30.55;;;-5.30;99.90;;;;;;5041754;28;20041;-73
2024/01/11 02:37:35;;;;;;;105.93;31.50;;;-5.20;99.90;;;;;;5044423;28;20626;-73
2024/01/11 02:40:02;;;;;;;98.80;32.17;;;-5.20;99.90;;;;;;5031057;28;20037;-73
2024/01/11 02:42:27;;;;;;;92.45;29.67;;;-5.20;99.90;;;;;;5040746;28;20084;-74
2024/01/11 02:44:53;;;;;;;105.65;32.42;;;-5.20;99.90;;;;;;5030761;28;20029;-73
2024/01/11 02:47:19;;;;;;;102.18;30.35;;;-5.20;99.90;;;;;;5033669;28;20632;-73
2024/01/11 02:49:44;;;;;;;101.72;32.33;;;-5.20;99.90;;;;;;5033095;28;20394;-77
2024/01/11 02:52:10;;;;;;;99.78;30.70;;;-5.30;99.90;;;;;;5039432;28;20503;-74
2024/01/11 02:54:35;;;;;;;115.28;32.42;;;-5.40;99.90;;;;;;5030105;28;20409;-73
2024/01/11 02:57:01;;;;;;;114.88;34.22;;;-5.50;99.90;;;;;;5029509;28;20080;-73
2024/01/11 02:59:27;;;;;;;103.03;32.53;;;-5.50;99.90;;;;;;5029685;28;20033;-72
2024/01/11 03:01:52;;;;;;;95.68;29.15;;;-5.50;99.90;;;;;;5030897;28;20053;-73
2024/01/11 03:04:18;;;;;;;103.15;30.42;;;-5.50;99.90;;;;;;5030258;28;20055;-74
2024/01/11 03:06:44;;;;;;;96.00;30.42;;;-5.50;99.90;;;;;;5033783;28;20744;-77
2024/01/11 03:09:09;;;;;;;96.97;29.55;;;-5.50;99.90;;;;;;5030372;28;20128;-74
2024/01/11 03:11:35;;;;;;;97.63;29.92;;;-5.50;99.90;;;;;;5035885;28;20045;-73
2024/01/11 03:14:04;;;;;;;101.90;30.17;;;-5.50;99.90;;;;;;5028231;28;20036;-72
2024/01/11 03:16:29;;;;;;;105.03;31.48;;;-5.50;99.90;;;;;;5045517;28;20167;-74
2024/01/11 03:18:55;;;;;;;102.65;32.90;;;-5.50;99.90;;;;;;5048879;28;20517;-72
2024/01/11 03:21:21;;;;;;;96.45;30.90;;;-5.50;99.90;;;;;;5046178;28;20026;-73
2024/01/11 03:23:46;;;;;;;96.45;32.47;;;-5.50;99.90;;;;;;5028842;28;20033;-77
2024/01/11 03:26:18;;;;;;;108.13;32.83;;;-5.50;99.90;;;;;;5027884;28;20033;-73
2024/01/11 03:28:44;;;;;;;105.15;31.67;;;-5.50;99.90;;;;;;5029457;28;20029;-73
2024/01/11 03:31:10;;;;;;;97.35;30.17;;;-5.50;99.90;;;;;;5026279;28;20241;-73
2024/01/11 03:33:36;;;;;;;93.70;29.58;;;-5.60;99.90;;;;;;5029408;28;20030;-73
2024/01/11 03:36:09;;;;;;;98.55;29.08;;;-5.70;99.90;;;;;;5028633;28;20108;-72
2024/01/11 03:38:35;;;;;;;106.00;30.45;;;-5.80;99.90;;;;;;5027795;28;20390;-73
2024/01/11 03:41:01;;;;;;;101.55;30.92;;;-5.80;99.90;;;;;;5028835;28;20456;-73
2024/01/11 03:43:27;;;;;;;108.22;31.70;;;-5.80;99.90;;;;;;5028373;28;20199;-73
2024/01/11 03:45:52;;;;;;;96.72;29.13;;;-5.70;99.90;;;;;;5028575;28;20029;-74
2024/01/11 03:48:18;;;;;;;99.95;29.55;;;-5.70;99.90;;;;;;5029047;28;20140;-73
2024/01/11 03:50:44;;;;;;;91.15;28.17;;;-5.80;99.90;;;;;;5028855;28;20045;-74
2024/01/11 03:53:11;;;;;;;103.18;28.25;;;-5.90;99.90;;;;;;5028097;28;20470;-73
2024/01/11 03:55:36;;;;;;;98.28;28.50;;;-6.00;99.90;;;;;;5029659;28;20053;-72
2024/01/11 03:58:02;;;;;;;98.68;28.83;;;-6.10;99.90;;;;;;5028232;28;20112;-74
2024/01/11 04:00:28;;;;;;;91.15;27.77;;;-6.10;99.90;;;;;;5028030;28;20048;-73
2024/01/11 04:02:53;;;;;;;93.03;29.27;;;-6.10;99.90;;;;;;5035066;28;20043;-73
2024/01/11 04:05:19;;;;;;;90.75;27.70;;;-6.00;99.90;;;;;;5029533;28;20486;-72
2024/01/11 04:07:45;;;;;;;97.35;28.50;;;-6.10;99.90;;;;;;5030276;28;20041;-76
2024/01/11 04:10:10;;;;;;;89.22;28.48;;;-6.10;99.90;;;;;;5029009;28;20843;-73
2024/01/11 04:12:40;;;;;;;104.28;30.50;;;-6.10;99.90;;;;;;5047884;28;20474;-72
2024/01/11 04:15:06;;;;;;;91.72;29.17;;;-6.10;99.90;;;;;;5034129;28;20040;-72
2024/01/11 04:17:31;;;;;;;99.28;30.38;;;-6.10;99.90;;;;;;5046948;28;20071;-73
2024/01/11 04:19:57;;;;;;;108.18;30.30;;;-6.00;99.90;;;;;;5027884;28;20069;-72
2024/01/11 04:22:23;;;;;;;97.65;28.77;;;-6.00;99.90;;;;;;5060130;28;20112;-73
2024/01/11 04:24:48;;;;;;;100.82;30.52;;;-6.00;99.90;;;;;;5024529;28;20083;-76
2024/01/11 04:27:14;;;;;;;94.85;29.83;;;-6.00;99.90;;;;;;5027419;28;20443;-72
2024/01/11 04:29:39;;;;;;;105.90;30.90;;;-6.00;99.90;;;;;;5028465;28;20105;-73
2024/01/11 04:32:05;;;;;;;105.50;31.92;;;-6.00;99.90;;;;;;5027424;28;20030;-72
2024/01/11 04:34:31;;;;;;;109.70;33.33;;;-6.00;99.90;;;;;;5028078;28;20378;-72
2024/01/11 04:36:57;;;;;;;98.55;31.35;;;-6.00;99.90;;;;;;5041129;28;20416;-72
2024/01/11 04:39:22;;;;;;;101.32;31.15;;;-5.90;99.90;;;;;;5048388;28;20036;-73
2024/01/11 04:41:48;;;;;;;102.28;30.05;;;-5.90;99.90;;;;;;5025598;28;20033;-72
2024/01/11 04:44:13;;;;;;;96.70;28.00;;;-5.90;99.90;;;;;;5023861;28;20029;-72
2024/01/11 04:46:39;;;;;;;108.65;30.40;;;-6.00;99.90;;;;;;5028123;28;20033;-72
2024/01/11 04:49:05;;;;;;;94.43;29.58;;;-6.10;99.90;;;;;;5028023;28;20049;-72
2024/01/11 04:51:31;;;;;;;97.30;28.67;;;-6.10;99.90;;;;;;5028304;28;20033;-73
2024/01/11 04:53:57;;;;;;;100.55;30.60;;;-6.10;99.90;;;;;;5027240;28;20033;-71
2024/01/11 04:56:22;;;;;;;100.75;30.00;;;-6.00;99.90;;;;;;5025395;28;20545;-77
2024/01/11 04:58:48;;;;;;;105.65;30.45;;;-5.90;99.90;;;;;;5025202;28;20108;-73
2024/01/11 05:01:18;;;;;;;97.20;28.95;;;-5.90;99.90;;;;;;5019172;28;20381;-71
2024/01/11 05:03:45;;;;;;;98.97;30.45;;;-5.80;99.90;;;;;;5034097;28;20625;-73
2024/01/11 05:06:17;;;;;;;101.45;30.15;;;-5.80;99.90;;;;;;5027721;28;20025;-74
2024/01/11 05:08:45;;;;;;;102.68;31.45;;;-5.80;99.90;;;;;;5031973;28;20083;-74
2024/01/11 05:11:24;;;;;;;93.88;29.50;;;-5.70;99.90;;;;;;5028488;28;20565;-75
2024/01/11 05:13:50;;;;;;;94.72;27.88;;;-6.00;99.90;;;;;;5041602;28;20037;-76
2024/01/11 05:16:24;;;;;;;96.80;28.30;;;-6.30;99.90;;;;;;5026585;28;20034;-74
2024/01/11 05:18:50;;;;;;;97.22;27.58;;;-6.30;99.90;;;;;;5031620;28;20036;-70
2024/01/11 05:21:16;;;;;;;92.60;28.77;;;-6.20;99.90;;;;;;5039860;28;20029;-70
2024/01/11 05:23:42;;;;;;;98.90;29.45;;;-6.20;99.90;;;;;;5036117;28;20912;-73
2024/01/11 05:26:08;;;;;;;100.55;29.58;;;-6.20;99.90;;;;;;5039340;28;20029;-74
2024/01/11 05:28:34;;;;;;;96.40;29.17;;;-6.20;99.90;;;;;;5037042;28;20065;-73
2024/01/11 05:31:00;;;;;;;103.93;30.77;;;-6.10;99.90;;;;;;5030152;28;20491;-75
2024/01/11 05:33:25;;;;;;;87.32;26.88;;;-6.00;99.90;;;;;;5030925;28;20057;-77
2024/01/11 05:35:53;;;;;;;94.10;28.73;;;-6.20;99.90;;;;;;5031454;28;20104;-76
2024/01/11 05:38:19;;;;;;;96.35;27.98;;;-6.30;99.90;;;;;;5038509;28;20116;-74
2024/01/11 05:40:45;;;;;;;95.78;29.42;;;-6.40;99.90;;;;;;5052715;28;20541;-71
2024/01/11 05:43:10;;;;;;;103.07;29.58;;;-6.50;99.90;;;;;;5018247;28;20029;-71
2024/01/11 05:45:36;;;;;;;91.38;28.65;;;-6.50;99.90;;;;;;5022899;28;20109;-70
2024/01/11 05:48:02;;;;;;;102.03;28.67;;;-6.50;99.90;;;;;;5018957;28;20087;-73
2024/01/11 05:50:27;;;;;;;95.35;30.00;;;-6.40;99.90;;;;;;5018594;28;21542;-68
2024/01/11 05:52:54;;;;;;;91.80;28.00;;;-6.40;99.90;;;;;;5019801;28;20037;-77
2024/01/11 05:55:20;;;;;;;102.20;30.60;;;-6.30;99.90;;;;;;5020553;28;20034;-72
2024/01/11 05:57:45;;;;;;;110.18;31.27;;;-6.30;99.90;;;;;;5023302;28;20085;-70
2024/01/11 06:00:12;;;;;;;99.38;29.00;;;-6.30;99.90;;;;;;5023465;28;20056;-66
2024/01/11 06:02:37;;;;;;;115.10;34.78;;;-6.30;99.90;;;;;;5017514;28;20025;-68
2024/01/11 06:05:03;;;;;;;110.47;32.00;;;-6.20;99.90;;;;;;5028618;28;20104;-72
2024/01/11 06:07:29;;;;;;;152.98;38.28;;;-6.10;99.90;;;;;;5020161;28;20719;-71
2024/01/11 06:09:55;;;;;;;177.73;44.28;;;-6.10;99.90;;;;;;5019586;28;20025;-73
2024/01/11 06:12:20;;;;;;;158.82;41.72;;;-6.00;99.90;;;;;;5016868;28;20044;-75
2024/01/11 06:14:47;;;;;;;108.05;31.35;;;-5.90;99.90;;;;;;5021718;28;20386;-72
2024/01/11 06:17:12;;;;;;;118.95;33.97;;;-5.90;99.90;;;;;;5018163;28;20030;-71
2024/01/11 06:19:38;;;;;;;113.50;32.22;;;-5.90;99.90;;;;;;5024761;28;20036;-74
2024/01/11 06:22:05;;;;;;;134.50;40.42;;;-5.90;99.90;;;;;;5027029;28;20091;-71
2024/01/11 06:24:31;;;;;;;120.47;35.85;;;-5.90;99.90;;;;;;5025276;28;20362;-74
2024/01/11 06:26:57;;;;;;;98.57;31.77;;;-5.90;99.90;;;;;;5024015;28;20029;-71
2024/01/11 06:29:22;;;;;;;97.63;30.75;;;-5.90;99.90;;;;;;5019510;28;20532;-74
2024/01/11 06:31:48;;;;;;;106.50;31.45;;;-5.90;99.90;;;;;;5025114;28;20569;-74
2024/01/11 06:34:13;;;;;;;199.30;50.42;;;-6.00;99.90;;;;;;5021832;28;20048;-70
2024/01/11 06:36:39;;;;;;;107.15;32.88;;;-6.10;99.90;;;;;;5019061;28;20033;-70
2024/01/11 06:39:05;;;;;;;109.25;34.55;;;-6.10;99.90;;;;;;5022130;28;20065;-70
2024/01/11 06:41:30;;;;;;;110.18;32.10;;;-6.20;99.90;;;;;;5025893;28;20037;-70
2024/01/11 06:43:56;;;;;;;174.82;46.10;;;-6.40;99.90;;;;;;5026810;28;20033;-75
2024/01/11 06:46:23;;;;;;;389.75;87.63;;;-6.40;99.90;;;;;;5022456;28;20048;-72
2024/01/11 06:48:49;;;;;;;341.58;79.38;;;-6.40;99.90;;;;;;5026291;28;20746;-73
2024/01/11 06:51:21;;;;;;;141.52;40.13;;;-6.40;99.90;;;;;;5025826;28;20033;-70
2024/01/11 06:53:47;;;;;;;216.90;53.08;;;-6.40;99.90;;;;;;5028629;28;20033;-71
2024/01/11 06:56:18;;;;;;;355.55;79.07;;;-6.30;99.90;;;;;;5019097;28;20474;-69
2024/01/11 06:58:44;;;;;;;175.00;46.60;;;-6.30;99.90;;;;;;5056535;28;20470;-73
2024/01/11 07:01:10;;;;;;;162.02;45.95;;;-6.20;99.90;;;;;;5029223;28;20033;-72
2024/01/11 07:03:36;;;;;;;123.07;36.05;;;-6.20;99.90;;;;;;5027220;28;20036;-70
2024/01/11 07:06:05;;;;;;;143.35;39.58;;;-6.10;99.90;;;;;;5026799;28;20025;-73
2024/01/11 07:08:32;;;;;;;174.25;46.28;;;-6.10;99.90;;;;;;5025592;28;20663;-72
2024/01/11 07:10:58;;;;;;;124.00;35.55;;;-6.10;99.90;;;;;;5027329;28;20026;-73
2024/01/11 07:13:24;;;;;;;103.97;32.72;;;-6.00;99.90;;;;;;5023900;28;20481;-72
2024/01/11 07:15:51;;;;;;;102.78;30.90;;;-6.00;99.90;;;;;;5021345;28;20075;-71
2024/01/11 07:18:17;;;;;;;90.88;30.27;;;-6.00;99.90;;;;;;5016412;28;20100;-70
2024/01/11 07:20:43;;;;;;;100.78;31.48;;;-6.00;99.90;;;;;;5028282;28;20025;-72
2024/01/11 07:23:09;;;;;;;96.72;31.08;;;-6.00;99.90;;;;;;5023657;28;20462;-67
2024/01/11 07:25:35;;;;;;;94.65;29.73;;;-6.10;99.90;;;;;;5018790;28;20041;-73
2024/01/11 07:28:01;;;;;;;98.85;29.88;;;-6.10;99.90;;;;;;5020875;28;20029;-78
2024/01/11 07:30:26;;;;;;;96.57;31.02;;;-6.10;99.90;;;;;;5024874;28;20135;-77
2024/01/11 07:32:52;;;;;;;99.53;31.40;;;-6.20;99.90;;;;;;5031933;28;20572;-76
2024/01/11 07:35:18;;;;;;;94.90;30.13;;;-6.20;99.90;;;;;;5038846;28;20029;-71
2024/01/11 07:37:43;;;;;;;98.78;31.88;;;-6.10;99.90;;;;;;5033932;28;20029;-70
2024/01/11 07:40:13;;;;;;;96.18;30.05;;;-6.20;99.90;;;;;;5030263;28;20029;-71
2024/01/11 07:42:40;;;;;;;73.78;23.27;;;-6.20;99.90;;;;;;5028310;28;20039;-72
2024/01/11 07:45:06;;;;;;;93.13;28.20;;;-6.40;99.90;;;;;;5029999;28;20029;-77
2024/01/11 07:47:33;;;;;;;102.57;28.98;;;-6.40;99.90;;;;;;5025825;28;20748;-74
2024/01/11 07:49:58;;;;;;;89.18;28.30;;;-6.40;99.90;;;;;;5034096;28;20441;-73
2024/01/11 07:52:24;;;;;;;105.32;30.45;;;-6.40;99.90;;;;;;5034616;28;20033;-75
2024/01/11 07:54:50;;;;;;;103.60;31.45;;;-6.30;99.90;;;;;;5030115;28;20076;-74
2024/01/11 07:57:15;;;;;;;97.78;30.42;;;-6.30;99.90;;;;;;5033181;28;20040;-71
2024/01/11 07:59:41;;;;;;;107.78;29.85;;;-6.30;99.90;;;;;;5033045;28;20087;-76
2024/01/11 08:02:07;;;;;;;100.40;31.20;;;-6.30;99.90;;;;;;5029350;28;20124;-71
2024/01/11 08:04:33;;;;;;;103.30;32.00;;;-6.20;99.90;;;;;;5033633;28;20080;-72
2024/01/11 08:07:02;;;;;;;101.40;31.23;;;-6.10;99.90;;;;;;5032122;28;20056;-72
2024/01/11 08:09:28;;;;;;;111.18;32.90;;;-6.00;99.90;;;;;;5031722;28;20108;-73
2024/01/11 08:11:54;;;;;;;119.53;34.88;;;-5.80;99.90;;;;;;5048015;28;20025;-72
2024/01/11 08:14:20;;;;;;;105.28;32.00;;;-5.70;99.90;;;;;;5030088;28;20033;-73
2024/01/11 08:16:46;;;;;;;103.07;31.65;;;-5.50;99.90;;;;;;5035979;28;20029;-75
2024/01/11 08:19:14;;;;;;;97.63;32.03;;;-5.40;99.90;;;;;;5025126;28;20042;-75
2024/01/11 08:21:41;;;;;;;104.43;33.85;;;-5.30;99.90;;;;;;5030963;28;20112;-72
2024/01/11 08:24:07;;;;;;;110.45;33.40;;;-5.20;99.90;;;;;;5028998;28;20038;-73
2024/01/11 08:26:33;;;;;;;106.88;32.15;;;-5.10;99.90;;;;;;5028312;28;20033;-75
2024/01/11 08:28:58;;;;;;;100.70;30.80;;;-5.10;99.90;;;;;;5025183;28;20033;-76
2024/01/11 08:31:24;;;;;;;103.05;30.90;;;-5.00;99.90;;;;;;5030977;28;20047;-75
2024/01/11 08:33:50;;;;;;;94.60;32.63;;;-4.80;99.90;;;;;;5031184;28;20680;-74
2024/01/11 08:36:16;;;;;;;94.00;31.08;;;-4.70;99.90;;;;;;5034652;28;20029;-75
2024/01/11 08:38:42;;;;;;;91.35;30.90;;;-4.70;99.90;;;;;;5031429;28;20462;-75
2024/01/11 08:41:07;;;;;;;115.75;37.35;;;-4.50;99.90;;;;;;5033914;28;20435;-73
2024/01/11 08:43:33;;;;;;;112.15;35.45;;;-4.50;99.90;;;;;;5029712;28;20025;-77
2024/01/11 08:45:59;;;;;;;111.32;35.97;;;-4.30;99.90;;;;;;5028970;28;20199;-76
2024/01/11 08:48:25;;;;;;;133.88;41.10;;;-4.20;99.90;;;;;;5031358;28;20045;-75
2024/01/11 08:50:51;;;;;;;97.45;30.95;;;-4.10;99.90;;;;;;5029254;28;20061;-76
2024/01/11 08:53:17;;;;;;;96.78;31.70;;;-4.00;99.90;;;;;;5033271;28;20153;-76
2024/01/11 08:55:43;;;;;;;98.85;30.02;;;-4.00;99.90;;;;;;5024891;28;20075;-76
2024/01/11 08:58:10;;;;;;;98.80;30.67;;;-3.90;99.90;;;;;;5031092;28;20421;-75
2024/01/11 09:00:36;;;;;;;101.45;33.33;;;-3.70;99.90;;;;;;5032526;28;20171;-80
2024/01/11 09:03:03;;;;;;;98.35;32.05;;;-3.60;99.90;;;;;;5032501;28;20037;-78
2024/01/11 09:05:28;;;;;;;102.47;33.33;;;-3.50;99.90;;;;;;5027288;28;20116;-78
2024/01/11 09:07:54;;;;;;;152.27;43.63;;;-3.40;99.90;;;;;;5032122;28;20112;-75
2024/01/11 09:10:20;;;;;;;123.90;37.67;;;-3.20;99.90;;;;;;5027052;28;20112;-78
2024/01/11 09:12:46;;;;;;;149.40;42.35;;;-3.00;99.90;;;;;;5028368;28;20399;-72
2024/01/11 09:15:12;;;;;;;108.55;32.60;;;-2.80;99.90;;;;;;5041110;28;20029;-75
2024/01/11 09:17:38;;;;;;;115.90;36.22;;;-2.70;99.90;;;;;;5036754;28;20059;-74
2024/01/11 09:20:04;;;;;;;103.78;33.38;;;-2.60;99.90;;;;;;5045959;28;20091;-75
2024/01/11 09:22:30;;;;;;;94.70;33.35;;;-2.50;99.90;;;;;;5048800;28;20031;-74
2024/01/11 09:24:56;;;;;;;94.63;31.75;;;-2.30;99.90;;;;;;5039849;28;20505;-74
2024/01/11 09:27:22;;;;;;;101.50;33.00;;;-2.20;99.90;;;;;;5044978;28;20356;-76
2024/01/11 09:29:48;;;;;;;92.35;33.60;;;-2.20;99.90;;;;;;5047066;28;20065;-76
2024/01/11 09:32:14;;;;;;;95.88;32.05;;;-1.90;99.90;;;;;;5033696;28;20071;-77
2024/01/11 09:34:39;;;;;;;94.15;32.30;;;-1.80;99.90;;;;;;5036607;28;20045;-74
2024/01/11 09:37:05;;;;;;;86.93;31.20;;;-2.00;99.90;;;;;;5046674;28;20029;-75
2024/01/11 09:39:31;;;;;;;89.35;32.85;;;-2.00;99.90;;;;;;5051305;28;20369;-75
2024/01/11 09:42:06;;;;;;;93.05;32.45;;;-1.80;99.90;;;;;;5047291;28;20477;-75
2024/01/11 09:44:33;;;;;;;97.32;32.95;;;-1.60;99.90;;;;;;5035184;28;20405;-79
2024/01/11 09:47:01;;;;;;;90.10;32.92;;;-1.40;99.90;;;;;;5037297;28;20050;-80
2024/01/11 09:49:30;;;;;;;88.35;31.83;;;-1.30;99.90;;;;;;5033749;28;20123;-75
2024/01/11 09:51:59;;;;;;;90.05;32.25;;;-1.20;99.90;;;;;;5042582;28;20072;-77
2024/01/11 09:54:26;;;;;;;94.55;32.05;;;-1.20;99.90;;;;;;5028513;28;20106;-78
2024/01/11 09:56:53;;;;;;;94.50;32.58;;;-1.20;99.90;;;;;;5032507;28;20385;-77
2024/01/11 09:59:22;;;;;;;97.25;32.47;;;-1.20;99.90;;;;;;5035626;28;20407;-75
2024/01/11 10:01:48;;;;;;;96.43;32.50;;;-1.30;99.90;;;;;;5030423;28;20021;-76
2024/01/11 10:04:15;;;;;;;94.13;31.98;;;-1.30;99.90;;;;;;5030261;28;20033;-74
2024/01/11 10:06:42;;;;;;;90.10;30.67;;;-1.40;99.90;;;;;;5021198;28;20025;-74
2024/01/11 10:09:08;;;;;;;87.95;32.90;;;-1.30;99.90;;;;;;5036227;28;20470;-78
2024/01/11 10:11:36;;;;;;;84.95;31.23;;;-1.20;99.90;;;;;;5030465;28;20041;-79
2024/01/11 10:14:03;;;;;;;84.18;30.95;;;-1.10;99.90;;;;;;5036090;28;20036;-75
2024/01/11 10:16:28;;;;;;;93.22;33.92;;;-0.90;99.90;;;;;;5031851;28;20029;-79
2024/01/11 10:18:55;;;;;;;96.45;35.58;;;-0.80;99.90;;;;;;5035043;28;20791;-75
2024/01/11 10:21:21;;;;;;;93.20;34.20;;;-0.60;99.90;;;;;;5027097;28;20097;-75
2024/01/11 10:23:48;;;;;;;157.05;46.88;;;-0.60;99.90;;;;;;5030602;28;20113;-75
2024/01/11 10:26:16;;;;;;;128.45;43.60;;;-0.50;99.90;;;;;;5030461;28;20425;-77
2024/01/11 10:28:45;;;;;;;92.05;34.47;;;-0.30;99.90;;;;;;5031724;28;20033;-75
2024/01/11 10:31:11;;;;;;;88.90;32.03;;;0.00;99.90;;;;;;5029737;28;20030;-75
2024/01/11 10:33:37;;;;;;;87.07;31.92;;;0.20;99.90;;;;;;5032227;28;20440;-79
2024/01/11 10:36:03;;;;;;;90.22;32.63;;;0.00;99.90;;;;;;5032268;28;20033;-77
2024/01/11 10:38:30;;;;;;;90.57;33.38;;;0.00;99.90;;;;;;5029331;28;20692;-77
2024/01/11 10:41:00;;;;;;;86.57;30.63;;;0.10;99.90;;;;;;5037147;28;20125;-75
2024/01/11 10:43:27;;;;;;;87.97;32.70;;;0.40;99.90;;;;;;5026253;28;20026;-77
2024/01/11 10:45:59;;;;;;;98.07;34.55;;;0.60;99.90;;;;;;5027271;28;20029;-76
2024/01/11 10:48:25;;;;;;;85.95;33.70;;;0.90;99.90;;;;;;5045045;28;20056;-75
2024/01/11 10:51:00;;;;;;;83.07;32.05;;;0.80;99.90;;;;;;5032855;28;20481;-77
2024/01/11 10:53:42;;;;;;;89.80;30.92;;;0.40;99.90;;;;;;5030465;28;20104;-75
2024/01/11 10:56:09;;;;;;;87.80;30.90;;;0.40;99.90;;;;;;5038043;28;20537;-77
2024/01/11 10:58:35;;;;;;;87.70;31.95;;;0.40;99.90;;;;;;5029442;28;20616;-77
2024/01/11 11:01:02;;;;;;;88.50;31.80;;;0.70;99.90;;;;;;5046612;28;20036;-78
2024/01/11 11:03:30;;;;;;;87.18;30.58;;;1.10;99.90;;;;;;5036199;28;20037;-78
2024/01/11 11:05:56;;;;;;;89.93;32.53;;;1.30;99.90;;;;;;5036612;28;20037;-78
2024/01/11 11:08:23;;;;;;;89.20;33.03;;;1.00;99.90;;;;;;5027635;28;20030;-78
2024/01/11 11:10:54;;;;;;;86.18;31.35;;;1.40;99.90;;;;;;5021465;28;20109;-78
2024/01/11 11:13:21;;;;;;;86.40;32.20;;;1.60;99.90;;;;;;5018544;28;20060;-78
2024/01/11 11:15:48;;;;;;;87.50;32.15;;;1.50;99.90;;;;;;5022001;28;20038;-78
2024/01/11 11:18:16;;;;;;;84.75;32.10;;;1.50;99.90;;;;;;5029675;28;20459;-75
2024/01/11 11:20:42;;;;;;;89.57;33.38;;;1.80;99.90;;;;;;5023073;28;20056;-78
2024/01/11 11:23:15;;;;;;;89.15;32.92;;;2.10;99.90;;;;;;5029820;28;20100;-78
2024/01/11 11:25:42;;;;;;;85.85;32.95;;;2.30;99.90;;;;;;5022211;28;20076;-78
2024/01/11 11:28:08;;;;;;;86.63;33.08;;;2.30;99.90;;;;;;5026694;28;20366;-77
2024/01/11 11:30:40;;;;;;;92.18;36.17;;;2.30;99.90;;;;;;5027426;28;20032;-76
2024/01/11 11:33:09;;;;;;;85.38;31.83;;;2.50;99.90;;;;;;5034358;28;20068;-75
2024/01/11 11:35:35;;;;;;;88.00;32.20;;;2.80;99.90;;;;;;5029442;28;20029;-79
2024/01/11 11:38:02;;;;;;;86.45;32.75;;;2.70;99.90;;;;;;5028693;28;20041;-80
2024/01/11 11:40:42;;;;;;;80.40;32.45;;;2.80;99.90;;;;;;5029416;28;20033;-80
2024/01/11 11:43:08;;;;;;;86.93;32.72;;;3.00;99.90;;;;;;5028075;28;20036;-77
2024/01/11 11:45:35;;;;;;;86.43;31.25;;;2.90;99.90;;;;;;5028681;28;20033;-76
2024/01/11 11:48:28;;;;;;;87.07;33.30;;;2.90;99.90;;;;;;5042384;28;20059;-76
2024/01/11 11:51:10;;;;;;;82.78;32.42;;;2.60;99.90;;;;;;5033523;28;20045;-78
2024/01/11 11:53:40;;;;;;;86.15;32.33;;;2.70;99.90;;;;;;5029198;28;20592;-75
2024/01/11 11:56:07;;;;;;;82.63;33.17;;;2.80;99.90;;;;;;5016709;28;20041;-75
2024/01/11 11:58:34;;;;;;;86.32;33.08;;;2.70;99.90;;;;;;5028028;28;20041;-74
2024/01/11 12:01:01;;;;;;;81.85;31.42;;;2.90;99.90;;;;;;5029790;28;20044;-74
2024/01/11 12:03:37;;;;;;;86.35;32.50;;;3.00;99.90;;;;;;5031338;28;20029;-80
2024/01/11 12:06:03;;;;;;;78.05;31.80;;;3.00;99.90;;;;;;5027978;28;20033;-79
2024/01/11 12:08:29;;;;;;;89.35;32.08;;;3.30;99.90;;;;;;5039878;28;20108;-79
2024/01/11 12:10:55;;;;;;;77.80;31.20;;;3.10;99.90;;;;;;5027717;28;20032;-77
2024/01/11 12:13:20;;;;;;;84.68;33.35;;;3.00;99.90;;;;;;5027761;28;20489;-76
2024/01/11 12:15:46;;;;;;;83.03;31.80;;;3.00;99.90;;;;;;5030959;28;20045;-80
2024/01/11 12:18:12;;;;;;;76.68;30.25;;;3.10;99.90;;;;;;5034474;28;20542;-78
2024/01/11 12:20:38;;;;;;;85.72;31.73;;;3.30;99.90;;;;;;5033629;28;20028;-77